createdAt,value
2019-04-23T00:00:56.233Z,1.87
2019-04-23T00:03:18.794Z,2.30
2019-04-23T00:05:59.467Z,2.10
2019-04-23T00:08:33.960Z,2.00
2019-04-23T00:10:59.073Z,2.03
2019-04-23T00:13:30.373Z,2.30
2019-04-23T00:16:21.925Z,2.10
2019-04-23T00:18:49.757Z,2.10
2019-04-23T00:21:28.329Z,2.20
2019-04-23T00:24:19.288Z,2.00
2019-04-23T00:26:36.992Z,2.23
2019-04-23T00:29:08.407Z,2.20
2019-04-23T00:31:31.141Z,2.13
2019-04-23T00:34:09.372Z,2.10
2019-04-23T00:36:57.887Z,2.10
2019-04-23T00:39:10.320Z,2.57
2019-04-23T00:44:32.213Z,2.70
2019-04-23T00:46:40.067Z,2.47
2019-04-23T00:49:10.736Z,2.20
2019-04-23T00:51:42.576Z,2.20
2019-04-23T00:54:22.568Z,2.40
2019-04-23T00:56:44.905Z,2.47
2019-04-23T00:59:11.921Z,2.33
2019-04-23T01:02:00.911Z,2.60
2019-04-23T01:04:24.314Z,2.50
2019-04-23T01:06:55.808Z,2.23
2019-04-23T01:09:22.238Z,2.63
2019-04-23T01:11:50.117Z,2.50
2019-04-23T01:14:29.280Z,2.10
2019-04-23T01:16:55.180Z,2.27
2019-04-23T01:21:45.360Z,2.30
2019-04-23T01:24:45.849Z,2.47
2019-04-23T01:27:49.189Z,2.83
2019-04-23T01:32:44.037Z,2.60
2019-04-23T01:35:17.446Z,2.60
2019-04-23T01:37:46.599Z,2.30
2019-04-23T01:40:18.810Z,2.70
2019-04-23T01:42:45.014Z,2.80
2019-04-23T01:47:49.634Z,2.30
2019-04-23T01:50:33.881Z,2.60
2019-04-23T01:52:52.656Z,2.50
2019-04-23T01:58:06.924Z,2.20
2019-04-23T02:00:30.616Z,2.70
2019-04-23T02:05:31.614Z,3.53
2019-04-23T02:08:05.253Z,3.00
2019-04-23T02:13:02.267Z,3.07
2019-04-23T02:15:37.929Z,2.77
2019-04-23T02:18:08.096Z,2.77
2019-04-23T02:20:44.380Z,2.53
2019-04-23T02:23:31.259Z,2.90
2019-04-23T02:28:40.250Z,2.53
2019-04-23T02:36:22.650Z,2.97
2019-04-23T02:43:37.141Z,2.53
2019-04-23T02:46:09.364Z,3.00
2019-04-23T02:49:15.281Z,2.80
2019-04-23T02:51:21.626Z,2.80
2019-04-23T02:56:30.940Z,2.90
2019-04-23T02:59:01.870Z,3.00
2019-04-23T03:01:31.811Z,2.87
2019-04-23T03:04:01.513Z,3.30
2019-04-23T03:08:49.191Z,3.77
2019-04-23T03:14:01.081Z,3.30
2019-04-23T03:16:55.033Z,3.57
2019-04-23T03:19:15.363Z,3.27
2019-04-23T03:30:49.201Z,3.40
2019-04-23T03:33:21.044Z,3.17
2019-04-23T03:37:42.436Z,3.03
2019-04-23T03:40:09.530Z,3.33
2019-04-23T03:42:42.350Z,2.97
2019-04-23T03:45:44.511Z,3.63
2019-04-23T03:48:06.296Z,4.13
2019-04-23T03:50:23.539Z,3.23
2019-04-23T03:52:44.593Z,4.83
2019-04-23T03:55:19.155Z,4.10
2019-04-23T03:58:05.272Z,3.90
2019-04-23T04:00:32.925Z,3.67
2019-04-23T04:03:03.771Z,3.60
2019-04-23T04:05:33.072Z,3.60
2019-04-23T04:08:07.962Z,3.30
2019-04-23T04:10:25.068Z,3.77
2019-04-23T04:15:43.612Z,3.87
2019-04-23T04:18:11.644Z,3.53
2019-04-23T04:20:35.609Z,4.37
2019-04-23T04:23:09.306Z,3.87
2019-04-23T04:25:35.463Z,4.37
2019-04-23T04:28:12.097Z,4.20
2019-04-23T04:30:37.521Z,4.83
2019-04-23T04:33:31.584Z,4.53
2019-04-23T04:41:05.694Z,3.93
2019-04-23T04:46:15.158Z,5.17
2019-04-23T04:53:47.757Z,4.13
2019-04-23T04:56:07.613Z,5.03
2019-04-23T04:58:32.554Z,5.03
2019-04-23T05:01:10.042Z,4.07
2019-04-23T05:03:26.872Z,4.70
2019-04-23T05:13:47.467Z,4.40
2019-04-23T05:16:10.041Z,4.50
2019-04-23T05:21:13.603Z,7.50
2019-04-23T05:23:45.858Z,5.37
2019-04-23T05:28:55.518Z,4.57
2019-04-23T05:31:28.072Z,4.37
2019-04-23T05:33:57.231Z,4.60
2019-04-23T05:41:21.987Z,4.93
2019-04-23T05:43:52.610Z,5.00
2019-04-23T05:46:27.814Z,4.80
2019-04-23T05:51:28.251Z,5.37
2019-04-23T05:56:29.165Z,4.30
2019-04-23T05:58:58.216Z,5.40
2019-04-23T06:04:10.493Z,5.17
2019-04-23T06:06:47.063Z,4.67
2019-04-23T06:11:51.215Z,5.90
2019-04-23T06:14:17.404Z,4.90
2019-04-23T06:16:44.609Z,5.60
2019-04-23T06:19:14.378Z,4.70
2019-04-23T06:21:50.934Z,5.60
2019-04-23T06:24:22.232Z,4.73
2019-04-23T06:26:47.489Z,5.40
2019-04-23T06:29:20.616Z,5.10
2019-04-23T06:31:50.842Z,4.77
2019-04-23T06:34:22.975Z,4.40
2019-04-23T06:39:23.922Z,4.67
2019-04-23T06:41:56.311Z,5.23
2019-04-23T06:50:03.582Z,4.83
2019-04-23T06:52:08.628Z,6.67
2019-04-23T06:54:43.183Z,5.47
2019-04-23T06:59:39.082Z,4.70
2019-04-23T07:04:43.490Z,5.07
2019-04-23T07:07:31.400Z,5.40
2019-04-23T07:09:42.421Z,4.70
2019-04-23T07:12:11.589Z,5.37
2019-04-23T07:15:00.883Z,6.07
2019-04-23T07:17:09.149Z,4.90
2019-04-23T07:19:51.636Z,4.70
2019-04-23T07:22:18.384Z,5.90
2019-04-23T07:24:49.178Z,4.93
2019-04-23T07:27:22.126Z,5.60
2019-04-23T07:32:32.667Z,5.30
2019-04-23T07:35:10.742Z,5.60
2019-04-23T07:37:45.113Z,5.50
2019-04-23T07:40:32.643Z,5.23
2019-04-23T07:43:20.175Z,5.13
2019-04-23T07:46:17.115Z,5.60
2019-04-23T07:48:43.972Z,5.27
2019-04-23T07:51:15.735Z,5.27
2019-04-23T07:53:53.557Z,5.40
2019-04-23T07:56:28.023Z,5.70
2019-04-23T07:58:44.753Z,4.70
2019-04-23T08:01:34.858Z,5.23
2019-04-23T08:03:54.914Z,5.40
2019-04-23T08:06:16.461Z,5.93
2019-04-23T08:13:59.073Z,5.60
2019-04-23T08:19:18.218Z,5.93
2019-04-23T08:21:27.581Z,6.30
2019-04-23T08:27:18.596Z,5.33
2019-04-23T08:29:47.815Z,5.03
2019-04-23T08:32:19.462Z,6.43
2019-04-23T08:34:58.501Z,5.27
2019-04-23T08:37:54.418Z,5.40
2019-04-23T08:40:14.766Z,5.07
2019-04-23T08:48:14.315Z,5.97
2019-04-23T08:50:37.160Z,5.90
2019-04-23T08:53:22.647Z,5.27
2019-04-23T08:55:46.390Z,5.90
2019-04-23T08:58:16.996Z,5.40
2019-04-23T09:08:22.897Z,6.37
2019-04-23T09:10:56.792Z,6.03
2019-04-23T09:13:51.714Z,5.53
2019-04-23T09:20:55.237Z,6.03
2019-04-23T09:23:34.676Z,5.40
2019-04-23T09:31:12.250Z,6.87
2019-04-23T09:33:54.813Z,6.07
2019-04-23T09:39:14.091Z,5.70
2019-04-23T09:41:52.605Z,6.10
2019-04-23T09:44:58.552Z,5.50
2019-04-23T09:47:45.903Z,5.70
2019-04-23T09:50:15.569Z,5.87
2019-04-23T09:53:01.640Z,6.77
2019-04-23T09:55:22.419Z,6.07
2019-04-23T09:57:51.452Z,5.97
2019-04-23T10:00:29.202Z,6.27
2019-04-23T10:02:44.600Z,5.47
2019-04-23T10:05:08.442Z,6.37
2019-04-23T10:07:38.397Z,6.00
2019-04-23T10:09:57.243Z,5.83
2019-04-23T10:12:28.005Z,6.30
2019-04-23T10:15:07.294Z,5.67
2019-04-23T10:17:28.517Z,5.93
2019-04-23T10:19:58.571Z,5.90
2019-04-23T10:22:29.230Z,5.30
2019-04-23T10:24:59.490Z,5.03
2019-04-23T10:27:29.459Z,5.50
2019-04-23T10:29:59.614Z,5.17
2019-04-23T10:32:29.811Z,5.90
2019-04-23T10:35:10.294Z,6.00
2019-04-23T10:37:36.743Z,5.50
2019-04-23T10:40:05.416Z,5.67
2019-04-23T10:42:35.935Z,5.20
2019-04-23T10:45:42.404Z,5.60
2019-04-23T10:51:29.093Z,5.37
2019-04-23T10:59:05.507Z,5.30
2019-04-23T11:01:36.502Z,5.83
2019-04-23T11:04:38.401Z,5.70
2019-04-23T11:06:45.118Z,5.53
2019-04-23T11:09:29.227Z,5.50
2019-04-23T11:11:52.495Z,5.40
2019-04-23T11:14:25.669Z,5.63
2019-04-23T11:16:57.184Z,6.23
2019-04-23T11:19:32.246Z,5.20
2019-04-23T11:22:05.873Z,5.70
2019-04-23T11:24:38.038Z,5.43
2019-04-23T11:26:57.462Z,5.33
2019-04-23T11:29:34.049Z,5.53
2019-04-23T11:32:05.995Z,5.77
2019-04-23T11:34:56.937Z,5.87
2019-04-23T11:37:07.877Z,6.83
2019-04-23T11:39:42.994Z,5.93
2019-04-23T11:42:17.944Z,5.80
2019-04-23T11:44:42.003Z,5.50
2019-04-23T11:47:12.519Z,5.53
2019-04-23T11:50:03.928Z,5.50
2019-04-23T11:54:35.832Z,4.70
2019-04-23T11:59:44.291Z,5.67
2019-04-23T12:02:36.981Z,5.20
2019-04-23T12:05:35.427Z,5.00
2019-04-23T12:08:36.811Z,5.80
2019-04-23T12:11:36.130Z,5.70
2019-04-23T12:13:45.619Z,5.93
2019-04-23T12:16:15.002Z,5.83
2019-04-23T12:18:43.374Z,5.20
2019-04-23T12:21:15.150Z,6.37
2019-04-23T12:26:19.227Z,5.43
2019-04-23T12:28:49.660Z,6.93
2019-04-23T12:31:23.556Z,5.90
2019-04-23T12:33:50.508Z,5.37
2019-04-23T12:36:45.550Z,5.30
2019-04-23T12:39:15.372Z,5.57
2019-04-23T12:41:36.158Z,5.90
2019-04-23T12:44:11.010Z,5.93
2019-04-23T12:46:45.285Z,5.80
2019-04-23T12:49:22.256Z,5.37
2019-04-23T12:51:57.817Z,6.07
2019-04-23T12:54:21.640Z,6.00
2019-04-23T12:56:57.396Z,5.80
2019-04-23T12:59:20.190Z,5.70
2019-04-23T13:01:49.730Z,5.37
2019-04-23T13:04:21.721Z,5.70
2019-04-23T13:06:44.090Z,5.97
2019-04-23T13:09:33.119Z,5.57
2019-04-23T13:11:45.148Z,6.07
2019-04-23T13:14:29.586Z,5.93
2019-04-23T13:16:53.998Z,5.77
2019-04-23T13:19:35.201Z,5.00
2019-04-23T13:24:41.470Z,5.83
2019-04-23T13:27:20.155Z,6.47
2019-04-23T13:29:51.740Z,5.40
2019-04-23T13:32:20.783Z,6.20
2019-04-23T13:35:02.339Z,5.53
2019-04-23T13:37:29.503Z,5.93
2019-04-23T13:39:52.898Z,6.47
2019-04-23T13:42:35.643Z,6.10
2019-04-23T13:44:57.805Z,5.33
2019-04-23T13:47:46.837Z,5.70
2019-04-23T13:49:57.303Z,5.77
2019-04-23T13:52:51.596Z,5.47
2019-04-23T13:55:02.848Z,5.70
2019-04-23T13:57:57.689Z,6.07
2019-04-23T13:59:59.319Z,6.53
2019-04-23T14:02:40.289Z,5.40
2019-04-23T14:05:21.699Z,6.10
2019-04-23T14:07:57.159Z,5.97
2019-04-23T14:13:08.688Z,5.93
2019-04-23T14:15:36.911Z,6.60
2019-04-23T14:18:19.651Z,5.73
2019-04-23T14:20:27.668Z,5.93
2019-04-23T14:23:07.900Z,5.83
2019-04-23T14:25:28.077Z,5.73
2019-04-23T14:28:17.551Z,5.67
2019-04-23T14:30:40.771Z,5.97
2019-04-23T14:33:14.686Z,6.07
2019-04-23T14:35:42.602Z,6.23
2019-04-23T14:40:43.136Z,5.67
2019-04-23T14:43:22.517Z,5.50
2019-04-23T14:46:18.719Z,6.33
2019-04-23T14:48:23.088Z,5.80
2019-04-23T14:51:02.542Z,5.40
2019-04-23T15:01:22.024Z,5.40
2019-04-23T15:08:48.594Z,5.97
2019-04-23T15:13:44.554Z,6.20
2019-04-23T15:24:16.938Z,5.40
2019-04-23T15:28:54.507Z,5.27
2019-04-23T15:34:15.859Z,5.60
2019-04-23T15:37:11.133Z,5.77
2019-04-23T15:39:38.742Z,6.07
2019-04-23T15:44:16.726Z,5.50
2019-04-23T15:46:57.013Z,5.33
2019-04-23T15:49:26.586Z,5.07
2019-04-23T15:51:56.744Z,6.47
2019-04-23T15:54:45.445Z,6.23
2019-04-23T16:01:41.969Z,5.30
2019-04-23T16:04:08.552Z,5.30
2019-04-23T16:06:38.925Z,6.03
2019-04-23T16:09:39.844Z,6.23
2019-04-23T16:12:03.515Z,5.93
2019-04-23T16:14:56.916Z,5.90
2019-04-23T16:25:08.084Z,5.83
2019-04-23T16:27:35.490Z,6.17
2019-04-23T16:32:57.901Z,5.83
2019-04-23T16:38:00.891Z,5.57
2019-04-23T16:40:33.209Z,5.10
2019-04-23T16:43:03.813Z,5.90
2019-04-23T16:45:55.488Z,5.37
2019-04-23T16:48:40.680Z,5.57
2019-04-23T16:51:10.892Z,6.20
2019-04-23T16:53:24.057Z,5.90
2019-04-23T16:56:00.068Z,6.27
2019-04-23T17:03:31.978Z,6.27
2019-04-23T17:06:15.815Z,5.70
2019-04-23T17:08:57.150Z,5.70
2019-04-23T17:13:50.985Z,5.20
2019-04-23T17:18:53.834Z,5.43
2019-04-23T17:21:38.550Z,5.93
2019-04-23T17:24:07.998Z,5.93
2019-04-23T17:26:29.112Z,5.57
2019-04-23T17:29:06.647Z,5.27
2019-04-23T17:34:17.533Z,6.10
2019-04-23T17:37:07.318Z,6.10
2019-04-23T17:40:15.744Z,6.17
2019-04-23T17:42:49.094Z,6.27
2019-04-23T17:47:58.984Z,6.63
2019-04-23T17:50:43.979Z,5.63
2019-04-23T17:53:11.093Z,5.73
2019-04-23T17:55:57.236Z,6.37
2019-04-23T17:58:16.360Z,6.57
2019-04-23T18:03:25.824Z,6.93
2019-04-23T18:06:15.651Z,6.47
2019-04-23T18:08:30.898Z,5.60
2019-04-23T18:11:05.887Z,5.90
2019-04-23T18:13:35.006Z,6.67
2019-04-23T18:16:08.440Z,6.43
2019-04-23T18:18:42.288Z,6.20
2019-04-23T18:21:32.222Z,6.23
2019-04-23T18:24:22.695Z,6.67
2019-04-23T18:27:01.303Z,6.10
2019-04-23T18:29:44.012Z,6.23
2019-04-23T18:32:19.884Z,6.87
2019-04-23T18:35:08.769Z,7.10
2019-04-23T18:37:23.779Z,6.50
2019-04-23T18:39:48.194Z,6.90
2019-04-23T18:42:29.434Z,6.33
2019-04-23T18:45:03.608Z,7.27
2019-04-23T18:49:55.581Z,7.40
2019-04-23T18:52:33.634Z,7.10
2019-04-23T18:54:57.050Z,6.67
2019-04-23T18:57:27.832Z,6.77
2019-04-23T19:03:30.580Z,6.33
2019-04-23T19:05:50.294Z,7.37
2019-04-23T19:11:14.481Z,7.73
2019-04-23T19:13:44.652Z,5.83
2019-04-23T19:16:18.414Z,6.90
2019-04-23T19:18:49.337Z,6.97
2019-04-23T19:21:36.291Z,6.33
2019-04-23T19:26:41.456Z,6.93
2019-04-23T19:31:40.147Z,7.30
2019-04-23T19:34:33.812Z,7.33
2019-04-23T19:36:52.590Z,7.43
2019-04-23T19:39:19.459Z,7.10
2019-04-23T19:47:01.762Z,8.37
2019-04-23T19:49:21.459Z,6.83
2019-04-23T19:51:52.395Z,7.80
2019-04-23T19:54:28.712Z,7.43
2019-04-23T19:59:29.346Z,7.50
2019-04-23T20:01:54.978Z,6.77
2019-04-23T20:04:21.755Z,6.87
2019-04-23T20:11:57.380Z,7.43
2019-04-23T20:14:33.304Z,6.70
2019-04-23T20:17:21.330Z,6.60
2019-04-23T20:19:41.318Z,6.70
2019-04-23T20:24:41.666Z,7.10
2019-04-23T20:30:21.146Z,6.37
2019-04-23T20:35:11.478Z,6.63
2019-04-23T20:38:08.891Z,6.70
2019-04-23T20:40:14.983Z,7.23
2019-04-23T20:42:48.222Z,6.67
2019-04-23T20:45:14.544Z,6.73
2019-04-23T20:50:13.675Z,6.23
2019-04-23T20:52:48.067Z,7.17
2019-04-23T20:55:47.047Z,6.83
2019-04-23T20:58:02.418Z,6.70
2019-04-23T21:00:56.499Z,7.17
2019-04-23T21:03:30.457Z,7.10
2019-04-23T21:05:41.226Z,6.70
2019-04-23T21:08:30.349Z,7.83
2019-04-23T21:10:50.980Z,7.93
2019-04-23T21:13:43.357Z,7.47
2019-04-23T21:15:52.503Z,6.93
2019-04-23T21:18:34.491Z,6.30
2019-04-23T21:25:52.586Z,6.33
2019-04-23T21:28:40.064Z,6.13
2019-04-23T21:31:11.589Z,6.20
2019-04-23T21:33:45.451Z,6.40
2019-04-23T21:36:44.457Z,6.67
2019-04-23T21:42:22.613Z,7.07
2019-04-23T21:44:47.467Z,7.20
2019-04-23T21:47:15.041Z,6.60
2019-04-23T21:50:04.583Z,6.43
2019-04-23T21:57:29.727Z,6.73
2019-04-23T21:59:56.206Z,5.80
2019-04-23T22:02:28.746Z,6.70
2019-04-23T22:05:15.941Z,6.23
2019-04-23T22:07:40.760Z,6.43
2019-04-23T22:10:02.979Z,6.37
2019-04-23T22:12:40.782Z,6.17
2019-04-23T22:15:20.357Z,6.67
2019-04-23T22:17:39.233Z,6.17
2019-04-23T22:20:09.688Z,6.00
2019-04-23T22:22:49.857Z,6.80
2019-04-23T22:25:11.490Z,6.80
2019-04-23T22:27:46.092Z,6.97
2019-04-23T22:30:11.357Z,6.27
2019-04-23T22:32:56.207Z,6.40
2019-04-23T22:35:10.542Z,6.97
2019-04-23T22:37:53.884Z,6.40
2019-04-23T22:40:10.707Z,6.93
2019-04-23T22:43:14.726Z,7.17
2019-04-23T22:45:16.048Z,6.97
2019-04-23T22:50:18.899Z,6.67
2019-04-23T22:52:53.710Z,6.80
2019-04-23T22:55:27.620Z,6.67
2019-04-23T23:00:27.394Z,7.13
2019-04-23T23:03:07.623Z,6.83
2019-04-23T23:05:53.036Z,6.47
2019-04-23T23:10:38.483Z,6.40
2019-04-23T23:15:44.961Z,7.07
2019-04-23T23:18:14.059Z,6.87
2019-04-23T23:20:44.909Z,6.50
2019-04-23T23:23:18.050Z,7.23
2019-04-23T23:25:54.227Z,6.80
2019-04-23T23:28:26.916Z,6.83
2019-04-23T23:31:05.318Z,6.60
2019-04-23T23:38:42.208Z,7.53
2019-04-23T23:41:12.387Z,6.67
2019-04-23T23:43:30.326Z,7.03
2019-04-23T23:46:13.726Z,6.87
2019-04-23T23:48:39.298Z,6.70
2019-04-23T23:53:57.345Z,6.53
2019-04-23T23:58:52.948Z,6.80
